Time;durP1;ratioP1;P1;durP2;ratioP2;P2;SDS_P1;SDS_P2;PMS_P1;PMS_P2;Temp;Humidity;BMP_temperature;BMP_pressure;BME280_temperature;BME280_humidity;BME280_pressure;Samples;Min_cycle;Max_cycle;Signal;HPM_P1;HPM_P2
2021/04/26 00:02:00;;;;;;;10.65;5.13;;;;;;;8.27;61.67;99113.25;6243889;23;20004;-77
2021/04/26 00:04:26;;;;;;;8.68;5.00;;;;;;;8.24;61.36;99119.09;6243570;23;20082;-76
2021/04/26 00:06:52;;;;;;;8.18;4.15;;;;;;;8.21;61.31;99120.41;6244193;23;20219;-77
2021/04/26 00:09:17;;;;;;;9.70;4.70;;;;;;;8.17;61.23;99119.31;6245985;23;20023;-77
2021/04/26 00:11:43;;;;;;;8.00;4.50;;;;;;;8.12;61.22;99116.63;6247188;23;20425;-75
2021/04/26 00:14:08;;;;;;;9.15;4.65;;;;;;;8.10;60.89;99114.22;6217900;23;20461;-75
2021/04/26 00:16:34;;;;;;;10.70;5.00;;;;;;;8.05;61.33;99116.84;6243506;23;20087;-77
2021/04/26 00:19:01;;;;;;;8.20;4.88;;;;;;;8.05;61.05;99113.41;6243933;23;20084;-78
2021/04/26 00:21:26;;;;;;;7.75;4.35;;;;;;;8.01;61.13;99110.44;6217150;23;20491;-78
2021/04/26 00:23:51;;;;;;;6.70;4.32;;;;;;;7.97;61.47;99112.81;6218031;23;20000;-78
2021/04/26 00:26:17;;;;;;;8.85;4.53;;;;;;;7.93;61.58;99118.91;6244795;23;20023;-77
2021/04/26 00:28:42;;;;;;;7.40;4.65;;;;;;;7.90;61.69;99122.06;6220059;23;20333;-78
2021/04/26 00:31:08;;;;;;;7.35;4.57;;;;;;;7.88;61.74;99126.88;6245272;23;20011;-77
2021/04/26 00:33:33;;;;;;;10.73;5.25;;;;;;;7.81;61.33;99121.75;6218829;23;20006;-78
2021/04/26 00:35:59;;;;;;;9.60;5.78;;;;;;;7.81;61.83;99122.56;6244138;23;20075;-78
2021/04/26 00:38:24;;;;;;;9.18;6.15;;;;;;;7.81;61.73;99133.22;6220040;23;20023;-77
2021/04/26 00:40:49;;;;;;;8.18;5.80;;;;;;;7.78;61.83;99131.06;6248304;23;20020;-79
2021/04/26 00:43:15;;;;;;;8.20;4.95;;;;;;;7.73;61.30;99133.69;6222457;23;20019;-77
2021/04/26 00:45:41;;;;;;;10.00;5.47;;;;;;;7.69;61.48;99128.06;6250762;23;20027;-80
2021/04/26 00:48:07;;;;;;;7.68;5.07;;;;;;;7.67;61.70;99142.69;6224310;23;20008;-76
2021/04/26 00:50:33;;;;;;;5.90;4.53;;;;;;;7.64;61.58;99146.66;6249909;23;20003;-76
2021/04/26 00:53:04;;;;;;;8.30;4.65;;;;;;;7.55;61.02;99142.06;6248837;23;20475;-78
2021/04/26 00:55:32;;;;;;;7.88;5.07;;;;;;;7.52;61.35;99146.03;6221752;23;20004;-75
2021/04/26 00:57:58;;;;;;;8.70;5.03;;;;;;;7.46;61.34;99145.19;6248099;23;20008;-79
2021/04/26 01:00:24;;;;;;;8.05;5.20;;;;;;;7.41;61.19;99155.78;6249016;23;20006;-76
2021/04/26 01:02:50;;;;;;;11.73;5.18;;;;;;;7.35;61.70;99152.25;6246267;23;20004;-76
2021/04/26 01:05:20;;;;;;;6.93;4.28;;;;;;;7.34;61.45;99150.66;6247767;23;20004;-75
2021/04/26 01:07:46;;;;;;;8.88;5.25;;;;;;;7.30;61.88;99154.06;6246845;23;20030;-75
2021/04/26 01:10:15;;;;;;;6.93;4.78;;;;;;;7.24;61.75;99147.91;6246708;23;20000;-75
2021/04/26 01:13:05;;;;;;;9.98;5.18;;;;;;;7.24;62.30;99158.53;6250146;23;20068;-77
2021/04/26 01:15:36;;;;;;;8.30;4.93;;;;;;;7.19;61.83;99164.59;6247912;23;20000;-76
2021/04/26 01:18:09;;;;;;;8.93;5.40;;;;;;;7.14;62.50;99161.09;6249151;23;20011;-76
2021/04/26 01:21:01;;;;;;;8.80;5.57;;;;;;;7.12;62.66;99161.34;6246867;23;20016;-77
2021/04/26 01:23:47;;;;;;;9.40;5.10;;;;;;;7.02;62.10;99147.94;6247775;23;19996;-76
2021/04/26 01:26:26;;;;;;;9.23;5.10;;;;;;;7.03;62.23;99160.16;6245564;23;20503;-77
2021/04/26 01:29:03;;;;;;;7.20;4.93;;;;;;;6.99;62.74;99161.72;6247687;23;20008;-78
2021/04/26 01:31:40;;;;;;;6.57;4.53;;;;;;;6.93;62.13;99155.53;6249102;23;20019;-79
2021/04/26 01:34:06;;;;;;;7.15;4.25;;;;;;;6.88;62.33;99148.34;6222835;23;20008;-79
2021/04/26 01:36:32;;;;;;;5.93;4.40;;;;;;;6.84;62.27;99149.88;6220344;23;20043;-78
2021/04/26 01:38:59;;;;;;;5.45;4.15;;;;;;;6.84;62.13;99146.41;6245371;23;19996;-77
2021/04/26 01:41:27;;;;;;;5.25;4.53;;;;;;;6.79;61.99;99149.81;6246137;23;20038;-78
2021/04/26 01:43:54;;;;;;;7.43;4.07;;;;;;;6.72;62.55;99149.19;6247599;23;20000;-79
2021/04/26 01:46:21;;;;;;;6.13;4.18;;;;;;;6.71;62.44;99158.22;6219364;23;20034;-77
2021/04/26 01:48:49;;;;;;;5.53;4.07;;;;;;;6.65;62.68;99161.88;6244887;23;20030;-78
2021/04/26 01:51:16;;;;;;;5.13;3.80;;;;;;;6.60;62.39;99149.31;6246113;23;20075;-76
2021/04/26 01:53:44;;;;;;;5.07;4.40;;;;;;;6.53;62.47;99146.84;6249384;23;19996;-79
2021/04/26 01:56:11;;;;;;;7.78;4.13;;;;;;;6.52;62.89;99152.41;6250745;23;19996;-78
2021/04/26 01:58:42;;;;;;;6.38;4.38;;;;;;;6.47;62.84;99152.34;6247035;23;20016;-77
2021/04/26 02:01:13;;;;;;;7.40;4.65;;;;;;;6.41;63.14;99151.47;6244848;23;20341;-79
2021/04/26 02:03:40;;;;;;;6.78;4.82;;;;;;;6.39;63.50;99154.38;6252296;23;19996;-77
2021/04/26 02:06:06;;;;;;;4.10;3.70;;;;;;;6.36;63.58;99146.91;6245210;23;20008;-76
2021/04/26 02:08:33;;;;;;;7.93;4.97;;;;;;;6.32;63.29;99152.94;6246084;23;20023;-79
2021/04/26 02:10:58;;;;;;;7.93;4.55;;;;;;;6.27;63.11;99147.56;6226008;23;20020;-78
2021/04/26 02:13:26;;;;;;;5.50;4.38;;;;;;;6.21;63.69;99150.16;6227056;23;20004;-79
2021/04/26 02:15:54;;;;;;;9.13;4.55;;;;;;;6.19;63.28;99148.75;6249345;23;20004;-78
2021/04/26 02:18:20;;;;;;;6.40;4.45;;;;;;;6.17;63.63;99156.19;6224500;23;20000;-79
2021/04/26 02:20:46;;;;;;;6.85;4.35;;;;;;;6.15;63.77;99153.78;6253490;23;20026;-80
2021/04/26 02:23:12;;;;;;;4.97;4.40;;;;;;;6.11;63.55;99142.03;6224898;23;20043;-79
2021/04/26 02:25:37;;;;;;;10.70;4.65;;;;;;;6.11;63.89;99146.56;6250816;23;20008;-80
2021/04/26 02:29:05;;;;;;;7.55;4.70;;;;;;;6.08;64.09;99148.63;6237099;23;19999;-82
2021/04/26 02:31:33;;;;;;;6.85;4.78;;;;;;;6.07;64.18;99149.69;6257779;23;20054;-80
2021/04/26 02:34:37;;;;;;;;;;;;;;;6.09;64.55;99149.44;6225876;23;20078;-77
2021/04/26 02:37:16;;;;;;;9.35;5.45;;;;;;;6.07;65.26;99156.84;6099895;23;19909;-79
2021/04/26 02:39:45;;;;;;;8.30;5.32;;;;;;;6.07;64.76;99148.88;6102118;23;20348;-78
2021/04/26 02:42:13;;;;;;;7.85;5.55;;;;;;;6.05;64.69;99146.47;6188512;23;20011;-78
2021/04/26 02:44:42;;;;;;;11.05;5.95;;;;;;;6.02;64.97;99149.63;6249152;23;20428;-77
2021/04/26 02:47:13;;;;;;;;;;;;;;;6.03;64.81;99153.88;6249616;23;20000;-77
2021/04/26 02:49:44;;;;;;;7.47;5.00;;;;;;;5.97;64.96;99151.34;6248744;23;19906;-77
2021/04/26 02:52:11;;;;;;;10.50;5.47;;;;;;;5.97;64.58;99154.81;6248709;23;20000;-78
2021/04/26 02:54:38;;;;;;;10.55;5.60;;;;;;;5.91;64.33;99148.63;6248812;23;19996;-76
2021/04/26 02:57:05;;;;;;;8.15;4.82;;;;;;;5.87;64.88;99150.16;6218822;23;20091;-75
2021/04/26 02:59:32;;;;;;;9.60;5.90;;;;;;;5.87;64.91;99160.78;6219130;23;20000;-76
2021/04/26 03:01:58;;;;;;;10.77;5.25;;;;;;;5.77;65.01;99142.84;6245463;23;20010;-76
2021/04/26 03:04:28;;;;;;;9.75;5.15;;;;;;;5.79;65.00;99155.88;6249267;23;20000;-79
2021/04/26 03:06:57;;;;;;;9.60;6.10;;;;;;;5.77;65.09;99160.59;6254255;23;20087;-78
2021/04/26 03:09:23;;;;;;;;;;;;;;;5.75;64.89;99157.41;6253979;23;19996;-78
2021/04/26 03:11:51;;;;;;;9.05;5.88;;;;;;;5.71;65.41;99161.56;6250500;23;19982;-78
2021/04/26 03:14:19;;;;;;;12.93;6.53;;;;;;;5.68;65.43;99162.06;6244485;23;20000;-76
2021/04/26 03:16:46;;;;;;;11.95;6.43;;;;;;;5.66;65.59;99153.53;6245342;23;20027;-75
2021/04/26 03:19:12;;;;;;;10.35;6.30;;;;;;;5.67;65.53;99160.44;6246104;23;20000;-77
2021/04/26 03:21:38;;;;;;;13.10;7.50;;;;;;;5.66;65.93;99164.94;6247630;23;20010;-78
2021/04/26 03:24:06;;;;;;;13.15;6.78;;;;;;;5.63;65.45;99167.25;6247180;23;20007;-78
2021/04/26 03:26:32;;;;;;;11.55;6.18;;;;;;;5.63;65.66;99169.91;6219517;23;20058;-76
2021/04/26 03:28:59;;;;;;;15.18;6.80;;;;;;;5.61;66.00;99173.63;6244955;23;20003;-78
2021/04/26 03:31:26;;;;;;;13.25;7.88;;;;;;;5.64;66.50;99172.34;6244999;23;19999;-77
2021/04/26 03:33:52;;;;;;;13.13;7.22;;;;;;;5.67;66.37;99179.03;6249056;23;20056;-78
2021/04/26 03:36:20;;;;;;;10.65;7.05;;;;;;;5.69;66.48;99176.91;6246849;23;20020;-78
2021/04/26 03:38:46;;;;;;;20.30;9.52;;;;;;;5.71;66.59;99180.97;6247209;23;20000;-74
2021/04/26 03:41:12;;;;;;;13.98;7.72;;;;;;;5.73;66.76;99181.50;6247663;23;20003;-77
2021/04/26 03:43:44;;;;;;;16.58;8.15;;;;;;;5.77;66.55;99189.78;6224075;23;20079;-77
2021/04/26 03:46:10;;;;;;;12.20;7.70;;;;;;;5.80;66.29;99189.31;6223703;23;20000;-77
2021/04/26 03:48:35;;;;;;;16.40;10.20;;;;;;;5.82;66.71;99194.38;6249537;23;20006;-77
2021/04/26 03:51:01;;;;;;;24.77;11.77;;;;;;;5.82;66.89;99191.72;6245599;23;20027;-77
2021/04/26 03:53:26;;;;;;;25.83;12.02;;;;;;;5.84;67.90;99185.13;6247322;23;20000;-78
2021/04/26 03:55:52;;;;;;;21.73;11.75;;;;;;;5.88;67.56;99188.13;6244759;23;20000;-77
2021/04/26 03:58:17;;;;;;;24.33;11.93;;;;;;;5.92;67.58;99189.25;6248956;23;20317;-77
2021/04/26 04:00:42;;;;;;;27.65;12.18;;;;;;;5.96;67.53;99187.72;6220707;23;20380;-77
2021/04/26 04:03:10;;;;;;;29.60;11.70;;;;;;;5.99;67.63;99184.59;6246155;23;20008;-76
2021/04/26 04:05:37;;;;;;;22.25;10.88;;;;;;;6.04;67.33;99202.47;6250624;23;20023;-77
2021/04/26 04:08:12;;;;;;;26.38;10.07;;;;;;;6.08;67.84;99191.13;6257458;23;20066;-79
2021/04/26 04:10:38;;;;;;;26.50;10.35;;;;;;;6.16;67.18;99197.88;6257625;23;20004;-79
2021/04/26 04:13:03;;;;;;;21.70;10.38;;;;;;;6.14;67.41;99199.97;6197811;23;20464;-77
2021/04/26 04:15:29;;;;;;;18.45;8.93;;;;;;;6.17;66.68;99209.31;6222069;23;19997;-78
2021/04/26 04:17:54;;;;;;;16.13;7.93;;;;;;;6.23;65.94;99217.09;6245546;23;20048;-75
2021/04/26 04:20:20;;;;;;;13.45;7.45;;;;;;;6.37;65.66;99216.75;6244613;23;20000;-77
2021/04/26 04:22:45;;;;;;;13.38;7.93;;;;;;;6.59;65.57;99210.69;6218623;23;20495;-77
2021/04/26 04:25:12;;;;;;;17.42;8.60;;;;;;;6.89;65.45;99210.28;6241704;23;20012;-76
2021/04/26 04:27:38;;;;;;;15.65;7.25;;;;;;;7.39;64.78;99212.97;6243677;23;20560;-79
2021/04/26 04:30:06;;;;;;;14.05;7.55;;;;;;;7.93;63.99;99204.91;6218891;23;20325;-77
2021/04/26 04:32:32;;;;;;;11.82;6.72;;;;;;;8.62;62.46;99211.28;6243691;23;20046;-77
2021/04/26 04:34:57;;;;;;;13.57;7.07;;;;;;;9.33;60.88;99214.47;6218043;23;20000;-76
2021/04/26 04:37:22;;;;;;;15.88;8.80;;;;;;;10.02;58.54;99192.91;6218036;23;20090;-77
2021/04/26 04:39:48;;;;;;;20.52;7.70;;;;;;;10.67;57.29;99203.78;6217767;23;20010;-76
2021/04/26 04:42:13;;;;;;;15.13;7.43;;;;;;;11.41;55.82;99207.72;6217844;23;20031;-75
2021/04/26 04:44:40;;;;;;;20.33;8.70;;;;;;;12.09;53.96;99198.13;6244720;23;20417;-76
2021/04/26 04:47:05;;;;;;;17.70;9.10;;;;;;;12.80;52.27;99198.47;6217839;23;20051;-75
2021/04/26 04:49:31;;;;;;;16.52;9.65;;;;;;;13.42;50.77;99206.53;6244571;23;20487;-75
2021/04/26 04:51:56;;;;;;;10.82;7.78;;;;;;;14.04;50.17;99205.59;6217733;23;20433;-76
2021/04/26 04:54:22;;;;;;;10.75;8.48;;;;;;;14.68;49.04;99204.22;6244916;23;20000;-75
2021/04/26 04:56:51;;;;;;;14.43;8.95;;;;;;;15.28;47.38;99205.94;6244350;23;20011;-76
2021/04/26 04:59:17;;;;;;;14.95;9.55;;;;;;;15.83;46.44;99206.88;6243284;23;20004;-77
2021/04/26 05:01:42;;;;;;;20.45;12.77;;;;;;;16.34;45.30;99207.47;6244420;23;20049;-76
2021/04/26 05:04:07;;;;;;;21.88;13.73;;;;;;;16.88;44.21;99198.47;6217917;23;19996;-76
2021/04/26 05:06:33;;;;;;;15.52;10.10;;;;;;;17.28;43.58;99185.69;6244366;23;20050;-78
2021/04/26 05:08:58;;;;;;;18.83;12.57;;;;;;;17.71;42.83;99192.22;6244523;23;20329;-76
2021/04/26 05:11:24;;;;;;;11.65;9.65;;;;;;;18.08;40.20;99192.63;6217236;23;20015;-77
2021/04/26 05:13:49;;;;;;;13.05;9.90;;;;;;;18.40;39.48;99204.00;6244277;23;20023;-77
2021/04/26 05:16:21;;;;;;;13.45;10.55;;;;;;;18.70;38.62;99189.69;6217604;23;20076;-75
2021/04/26 05:18:46;;;;;;;17.08;11.32;;;;;;;19.01;37.99;99194.00;6217242;23;20118;-77
2021/04/26 05:21:12;;;;;;;13.40;9.43;;;;;;;19.31;38.00;99202.91;6244435;23;20414;-77
2021/04/26 05:23:37;;;;;;;18.63;10.30;;;;;;;19.56;37.70;99205.72;6217202;23;20350;-75
2021/04/26 05:26:03;;;;;;;14.30;8.80;;;;;;;19.84;37.86;99199.75;6244471;23;20042;-78
2021/04/26 05:28:28;;;;;;;10.75;7.43;;;;;;;20.19;37.63;99201.31;6217213;23;20003;-78
2021/04/26 05:30:53;;;;;;;16.73;8.15;;;;;;;20.26;36.71;99210.50;6243843;23;20016;-78
2021/04/26 05:33:20;;;;;;;12.18;7.32;;;;;;;20.47;36.65;99204.22;6217028;23;20004;-75
2021/04/26 05:35:45;;;;;;;14.95;8.77;;;;;;;20.58;36.17;99207.25;6217191;23;20028;-76
2021/04/26 05:38:15;;;;;;;13.30;9.25;;;;;;;20.62;36.24;99206.22;6217618;23;20370;-78
2021/04/26 05:40:41;;;;;;;14.25;7.65;;;;;;;20.72;35.93;99209.66;6242297;23;20008;-78
2021/04/26 05:43:09;;;;;;;10.02;6.78;;;;;;;20.74;35.68;99207.41;6217541;23;20058;-78
2021/04/26 05:45:35;;;;;;;9.55;7.25;;;;;;;20.82;35.76;99211.91;6243707;23;20422;-78
2021/04/26 05:48:01;;;;;;;8.88;6.15;;;;;;;20.84;35.61;99206.16;6242739;23;20003;-76
2021/04/26 05:50:27;;;;;;;9.20;6.57;;;;;;;20.88;35.42;99207.84;6242050;23;20000;-79
2021/04/26 05:52:54;;;;;;;7.03;6.03;;;;;;;20.88;35.17;99210.56;6216939;23;20147;-78
2021/04/26 05:55:20;;;;;;;7.32;5.43;;;;;;;20.94;35.31;99209.19;6242560;23;20000;-78
2021/04/26 05:57:45;;;;;;;8.40;5.22;;;;;;;20.85;34.82;99213.16;6242017;23;20015;-78
2021/04/26 06:00:11;;;;;;;6.90;5.38;;;;;;;20.86;35.34;99212.84;6217056;23;20095;-78
2021/04/26 06:02:36;;;;;;;10.75;5.43;;;;;;;20.79;35.21;99218.06;6216808;23;20418;-77
2021/04/26 06:05:02;;;;;;;9.20;5.45;;;;;;;20.78;35.65;99219.97;6244142;23;20001;-77
2021/04/26 06:07:27;;;;;;;6.03;5.07;;;;;;;20.71;35.45;99227.84;6217135;23;20012;-78
2021/04/26 06:09:53;;;;;;;9.52;6.68;;;;;;;20.60;36.00;99232.16;6241569;23;20000;-75
2021/04/26 06:12:18;;;;;;;6.63;5.10;;;;;;;20.45;36.32;99237.13;6242467;23;20032;-78
2021/04/26 06:14:44;;;;;;;7.63;5.00;;;;;;;20.45;36.73;99236.34;6243773;23;20402;-78
2021/04/26 06:17:09;;;;;;;8.73;5.25;;;;;;;20.46;36.87;99224.34;6216985;23;20008;-75
2021/04/26 06:19:34;;;;;;;9.32;5.72;;;;;;;20.46;36.82;99229.78;6243429;23;20031;-76
2021/04/26 06:22:00;;;;;;;6.55;5.85;;;;;;;20.39;37.13;99240.41;6217077;23;20000;-76
2021/04/26 06:24:25;;;;;;;8.70;5.70;;;;;;;20.30;37.15;99243.22;6217236;23;19996;-78
2021/04/26 06:26:50;;;;;;;8.77;5.90;;;;;;;20.17;37.88;99242.38;6216606;23;20015;-78
2021/04/26 06:29:16;;;;;;;65.43;17.25;;;;;;;20.10;38.12;99244.84;6243273;23;20421;-78
2021/04/26 06:31:42;;;;;;;53.53;18.50;;;;;;;20.08;38.14;99247.91;6216945;23;20015;-78
2021/04/26 06:34:07;;;;;;;32.13;10.98;;;;;;;19.88;38.37;99241.38;6244135;23;20026;-78
2021/04/26 06:36:32;;;;;;;17.77;7.50;;;;;;;19.86;38.25;99248.28;6216446;23;20106;-77
2021/04/26 06:38:58;;;;;;;13.07;6.32;;;;;;;19.76;37.63;99246.72;6241940;23;20008;-77
2021/04/26 06:41:23;;;;;;;6.57;5.93;;;;;;;19.56;38.53;99248.34;6242207;23;20008;-78
2021/04/26 06:43:49;;;;;;;13.25;6.63;;;;;;;19.43;38.79;99248.28;6216778;23;20375;-77
2021/04/26 06:46:15;;;;;;;10.25;6.97;;;;;;;19.05;39.54;99241.00;6217063;23;20495;-77
2021/04/26 06:48:40;;;;;;;7.78;6.10;;;;;;;18.76;39.72;99247.19;6216344;23;19996;-75
2021/04/26 06:51:06;;;;;;;9.55;6.78;;;;;;;18.30;40.63;99253.09;6216862;23;20004;-75
2021/04/26 06:53:31;;;;;;;9.35;6.35;;;;;;;18.08;41.57;99246.75;6216616;23;19996;-78
2021/04/26 06:55:57;;;;;;;8.90;6.00;;;;;;;17.98;42.30;99240.88;6241650;23;20002;-76
2021/04/26 06:58:23;;;;;;;7.38;5.85;;;;;;;17.85;42.59;99238.00;6216417;23;20386;-78
2021/04/26 07:00:48;;;;;;;10.43;6.00;;;;;;;17.76;42.96;99240.72;6241764;23;20047;-78
2021/04/26 07:03:14;;;;;;;6.70;5.40;;;;;;;17.65;42.45;99231.34;6242925;23;20060;-77
2021/04/26 07:05:39;;;;;;;9.38;5.75;;;;;;;17.61;42.89;99233.06;6216359;23;19996;-77
2021/04/26 07:08:05;;;;;;;8.90;5.22;;;;;;;17.63;42.85;99230.88;6243149;23;20000;-77
2021/04/26 07:10:30;;;;;;;9.55;5.95;;;;;;;17.62;42.80;99223.84;6216554;23;20354;-77
2021/04/26 07:12:56;;;;;;;9.25;5.18;;;;;;;17.60;42.72;99220.66;6241323;23;20049;-77
2021/04/26 07:15:21;;;;;;;10.77;4.93;;;;;;;17.60;42.66;99224.19;6243321;23;20317;-77
2021/04/26 07:17:47;;;;;;;6.97;5.60;;;;;;;17.48;42.97;99220.50;6216288;23;20008;-77
2021/04/26 07:20:14;;;;;;;5.78;4.95;;;;;;;17.39;43.30;99218.63;6216751;23;20513;-77
2021/04/26 07:22:40;;;;;;;12.07;5.88;;;;;;;17.40;42.82;99227.50;6216228;23;20027;-77
2021/04/26 07:25:07;;;;;;;38.40;11.60;;;;;;;17.38;42.65;99224.31;6241912;23;20484;-77
2021/04/26 07:27:32;;;;;;;20.92;7.38;;;;;;;17.39;43.10;99225.91;6241713;23;20083;-77
2021/04/26 07:29:58;;;;;;;14.25;7.28;;;;;;;17.34;43.02;99221.47;6242718;23;20079;-77
2021/04/26 07:32:23;;;;;;;18.08;8.40;;;;;;;17.31;43.13;99224.00;6241711;23;20066;-78
2021/04/26 07:34:49;;;;;;;55.78;17.38;;;;;;;17.28;43.30;99230.84;6242656;23;20333;-78
2021/04/26 07:37:14;;;;;;;19.63;6.78;;;;;;;17.30;42.90;99228.63;6216419;23;20008;-78
2021/04/26 07:39:40;;;;;;;14.43;6.60;;;;;;;17.33;43.95;99219.06;6216224;23;20000;-78
2021/04/26 07:42:06;;;;;;;8.20;5.50;;;;;;;17.35;43.46;99222.28;6216137;23;20007;-77
2021/04/26 07:44:32;;;;;;;38.80;14.18;;;;;;;17.38;43.47;99224.31;6216415;23;20023;-77
2021/04/26 07:46:57;;;;;;;10.35;6.10;;;;;;;17.40;43.15;99222.88;6216043;23;20011;-77
2021/04/26 07:49:25;;;;;;;7.10;5.63;;;;;;;17.31;43.16;99218.59;6241591;23;20067;-78
2021/04/26 07:51:51;;;;;;;10.48;5.57;;;;;;;17.10;43.54;99214.59;6215834;23;20007;-78
2021/04/26 07:54:17;;;;;;;6.43;5.55;;;;;;;17.06;44.04;99207.44;6216235;23;20535;-77
2021/04/26 07:56:42;;;;;;;9.70;6.18;;;;;;;17.02;44.37;99207.28;6215479;23;20024;-77
2021/04/26 07:59:08;;;;;;;9.23;6.00;;;;;;;16.93;43.86;99192.94;6243166;23;20011;-78
2021/04/26 08:01:34;;;;;;;8.85;6.15;;;;;;;16.78;44.53;99194.97;6216093;23;20054;-78
2021/04/26 08:03:59;;;;;;;10.18;5.40;;;;;;;16.69;44.75;99193.34;6242704;23;20000;-77
2021/04/26 08:06:24;;;;;;;6.80;5.13;;;;;;;16.57;44.45;99196.63;6216267;23;20004;-77
2021/04/26 08:08:50;;;;;;;6.60;5.28;;;;;;;16.46;44.88;99193.41;6241306;23;20024;-77
2021/04/26 08:11:16;;;;;;;9.43;5.82;;;;;;;16.39;45.18;99193.84;6216174;23;20421;-77
2021/04/26 08:13:42;;;;;;;7.25;5.15;;;;;;;16.35;45.57;99200.97;6241260;23;20003;-77
2021/04/26 08:16:07;;;;;;;7.60;5.25;;;;;;;16.29;45.13;99210.31;6216225;23;19996;-77
2021/04/26 08:18:33;;;;;;;6.22;5.18;;;;;;;16.22;45.73;99207.25;6216346;23;20310;-77
2021/04/26 08:20:59;;;;;;;9.80;5.63;;;;;;;16.19;46.01;99205.97;6241037;23;20075;-77
2021/04/26 08:23:24;;;;;;;7.68;4.93;;;;;;;16.17;45.98;99217.09;6216231;23;20255;-77
2021/04/26 08:25:50;;;;;;;8.23;5.53;;;;;;;16.14;45.65;99206.91;6215905;23;20004;-77
2021/04/26 08:28:18;;;;;;;6.78;5.22;;;;;;;16.21;45.75;99216.47;6216142;23;20406;-77
2021/04/26 08:30:44;;;;;;;6.13;5.03;;;;;;;16.22;46.12;99210.78;6215783;23;20004;-76
2021/04/26 08:33:10;;;;;;;5.82;4.78;;;;;;;16.18;46.31;99209.78;6242848;23;20000;-77
2021/04/26 08:35:35;;;;;;;5.97;4.80;;;;;;;16.24;45.90;99199.66;6215871;23;20372;-77
2021/04/26 08:38:00;;;;;;;8.55;6.20;;;;;;;16.31;45.68;99194.63;6215945;23;20011;-77
2021/04/26 08:40:26;;;;;;;8.60;6.35;;;;;;;16.40;45.04;99192.75;6215677;23;20314;-77
2021/04/26 08:42:51;;;;;;;11.45;6.38;;;;;;;16.47;45.02;99178.81;6215884;23;20004;-77
2021/04/26 08:45:19;;;;;;;7.30;5.60;;;;;;;16.56;44.73;99176.91;6216223;23;20000;-77
2021/04/26 08:47:45;;;;;;;10.73;5.43;;;;;;;16.61;44.63;99179.50;6215966;23;20307;-77
2021/04/26 08:50:11;;;;;;;5.53;4.60;;;;;;;16.70;44.10;99187.63;6216230;23;20323;-77
2021/04/26 08:52:38;;;;;;;8.43;5.90;;;;;;;16.78;44.57;99188.75;6240810;23;20062;-78
2021/04/26 08:55:04;;;;;;;8.77;5.03;;;;;;;16.80;44.30;99181.13;6241036;23;20161;-77
2021/04/26 08:57:29;;;;;;;5.90;4.55;;;;;;;16.91;44.86;99182.41;6198486;23;20435;-77
2021/04/26 08:59:55;;;;;;;7.07;4.90;;;;;;;17.04;44.54;99185.34;6205892;23;20005;-77
2021/04/26 09:02:20;;;;;;;9.23;4.53;;;;;;;17.13;43.74;99180.75;6205821;23;19997;-77
2021/04/26 09:04:51;;;;;;;8.10;5.00;;;;;;;17.22;42.85;99175.34;6182322;23;20004;-77
2021/04/26 09:07:18;;;;;;;6.43;5.15;;;;;;;17.30;42.96;99163.75;6182099;23;20323;-77
2021/04/26 09:09:50;;;;;;;7.35;4.90;;;;;;;17.34;42.48;99158.50;6182530;23;20095;-77
2021/04/26 09:12:21;;;;;;;11.00;5.53;;;;;;;17.42;41.77;99163.91;6182507;23;20024;-78
2021/04/26 09:14:49;;;;;;;7.65;5.72;;;;;;;17.42;42.07;99161.19;6182491;23;20000;-77
2021/04/26 09:17:36;;;;;;;7.68;4.90;;;;;;;17.44;42.18;99158.16;6182825;23;20087;-78
2021/04/26 09:20:17;;;;;;;6.90;4.32;;;;;;;17.48;41.77;99156.44;6207365;23;20005;-77
2021/04/26 09:22:52;;;;;;;5.80;4.85;;;;;;;17.55;41.58;99151.34;6182704;23;20342;-77
2021/04/26 09:25:23;;;;;;;6.80;4.47;;;;;;;17.64;41.37;99145.91;6208194;23;20386;-77
2021/04/26 09:27:57;;;;;;;5.43;4.07;;;;;;;17.77;40.94;99154.94;6182529;23;20001;-78
2021/04/26 09:30:50;;;;;;;7.82;4.40;;;;;;;17.88;40.73;99147.28;6183024;23;20445;-78
2021/04/26 09:33:26;;;;;;;6.13;4.65;;;;;;;17.97;40.02;99145.41;6207825;23;20009;-77
2021/04/26 09:36:03;;;;;;;7.15;3.90;;;;;;;18.08;39.46;99143.91;6207543;23;20409;-77
2021/04/26 09:38:34;;;;;;;5.35;4.05;;;;;;;18.15;39.20;99134.50;6207516;23;20009;-77
2021/04/26 09:41:08;;;;;;;5.43;4.22;;;;;;;18.18;39.04;99126.53;6182446;23;20419;-78
2021/04/26 09:43:34;;;;;;;7.15;4.28;;;;;;;18.20;38.13;99128.91;6182806;23;20381;-77
2021/04/26 09:46:00;;;;;;;4.63;4.20;;;;;;;18.22;39.03;99126.69;6182177;23;20005;-77
2021/04/26 09:48:29;;;;;;;6.07;4.10;;;;;;;18.27;38.87;99131.13;6206775;23;20008;-78
2021/04/26 09:50:55;;;;;;;6.70;3.95;;;;;;;18.30;38.55;99130.47;6182126;23;20445;-78
2021/04/26 09:53:22;;;;;;;9.02;4.43;;;;;;;18.27;37.30;99137.31;6182136;23;20001;-78
2021/04/26 09:55:49;;;;;;;5.10;4.03;;;;;;;18.28;37.84;99130.00;6182052;23;20079;-78
2021/04/26 09:58:15;;;;;;;9.68;5.72;;;;;;;18.33;38.33;99130.59;6206631;23;20013;-78
2021/04/26 10:00:43;;;;;;;7.95;5.18;;;;;;;18.35;38.06;99136.50;6182242;23;20009;-78
2021/04/26 10:03:09;;;;;;;4.97;4.47;;;;;;;18.39;38.51;99137.44;6182171;23;19997;-78
2021/04/26 10:05:35;;;;;;;4.95;3.85;;;;;;;18.47;38.55;99133.09;6207052;23;20043;-78
2021/04/26 10:08:01;;;;;;;7.22;5.32;;;;;;;18.52;39.12;99122.06;6206637;23;20005;-78
2021/04/26 10:10:26;;;;;;;10.05;5.05;;;;;;;18.55;39.29;99123.34;6207339;23;20008;-78
2021/04/26 10:12:51;;;;;;;6.10;4.93;;;;;;;18.58;39.19;99127.28;6206593;23;20084;-78
2021/04/26 10:15:25;;;;;;;4.13;3.72;;;;;;;18.57;39.17;99121.09;6207092;23;20080;-78
2021/04/26 10:17:53;;;;;;;6.10;4.65;;;;;;;18.58;39.31;99125.41;6181331;23;20036;-78
2021/04/26 10:20:42;;;;;;;5.53;4.47;;;;;;;18.60;38.79;99125.06;6181942;23;20086;-78
2021/04/26 10:23:33;;;;;;;6.93;4.32;;;;;;;18.64;39.44;99126.78;6181760;23;20331;-78
2021/04/26 10:25:59;;;;;;;7.15;4.75;;;;;;;18.69;38.21;99126.59;6181246;23;20071;-78
2021/04/26 10:28:35;;;;;;;5.90;3.83;;;;;;;18.70;38.54;99125.47;6206236;23;20100;-78
2021/04/26 10:31:04;;;;;;;9.05;4.57;;;;;;;18.76;38.14;99123.38;6206398;23;20462;-78
2021/04/26 10:33:54;;;;;;;4.57;3.88;;;;;;;18.82;38.03;99122.06;6181883;23;20016;-78
2021/04/26 10:36:46;;;;;;;10.05;3.85;;;;;;;18.88;37.55;99125.34;6181683;23;20001;-78
2021/04/26 10:39:17;;;;;;;5.55;3.92;;;;;;;18.89;37.17;99110.69;6182000;23;20012;-78
2021/04/26 10:41:45;;;;;;;4.97;3.72;;;;;;;18.92;36.54;99112.78;6181739;23;20346;-78
2021/04/26 10:44:11;;;;;;;6.15;4.00;;;;;;;18.98;36.25;99116.06;6181989;23;20446;-78
2021/04/26 10:46:37;;;;;;;6.65;3.85;;;;;;;19.03;35.85;99116.69;6181996;23;20008;-77
2021/04/26 10:49:06;;;;;;;3.38;2.72;;;;;;;19.09;34.50;99111.03;6206737;23;20147;-77
2021/04/26 10:51:34;;;;;;;5.32;3.47;;;;;;;19.07;34.04;99105.19;6181775;23;20005;-77
2021/04/26 10:54:00;;;;;;;;;;;;;;;19.08;33.78;99102.13;6182320;23;20039;-78
2021/04/26 10:56:28;;;;;;;4.03;3.20;;;;;;;19.10;34.06;99101.78;6183041;23;19905;-77
2021/04/26 10:59:16;;;;;;;4.88;2.72;;;;;;;19.13;33.34;99104.63;6210667;23;20017;-77
2021/04/26 11:01:47;;;;;;;5.63;2.88;;;;;;;19.17;33.16;99107.47;6236670;23;20000;-79
2021/04/26 11:04:13;;;;;;;5.80;3.22;;;;;;;19.20;33.84;99104.91;6211992;23;20334;-79
2021/04/26 11:06:39;;;;;;;4.22;3.35;;;;;;;19.25;32.61;99111.22;6236995;23;20315;-78
2021/04/26 11:09:16;;;;;;;4.10;3.58;;;;;;;19.24;32.04;99110.44;6211239;23;20179;-78
2021/04/26 11:11:55;;;;;;;5.43;3.10;;;;;;;19.14;32.44;99108.13;6236886;23;20004;-78
2021/04/26 11:14:23;;;;;;;4.20;2.85;;;;;;;19.13;31.97;99107.34;6212042;23;20326;-77
2021/04/26 11:16:55;;;;;;;3.45;2.95;;;;;;;19.08;32.32;99095.91;6236928;23;20008;-78
2021/04/26 11:19:21;;;;;;;3.45;2.55;;;;;;;19.04;32.15;99095.78;6211797;23;20099;-77
2021/04/26 11:21:49;;;;;;;3.63;2.72;;;;;;;19.07;33.31;99092.41;6211154;23;20024;-78
2021/04/26 11:24:26;;;;;;;;;;;;;;;19.13;33.54;99091.09;6238078;23;20400;-77
2021/04/26 11:27:07;;;;;;;3.03;2.80;;;;;;;19.21;33.37;99086.69;6236990;23;19900;-78
2021/04/26 11:29:33;;;;;;;3.60;2.10;;;;;;;19.29;33.70;99083.13;6236376;22;20005;-78
2021/04/26 11:32:02;;;;;;;4.40;3.00;;;;;;;19.38;32.83;99091.19;6212364;23;20496;-78
2021/04/26 11:34:48;;;;;;;4.47;3.15;;;;;;;19.44;31.93;99081.69;6236895;23;20004;-78
2021/04/26 11:37:15;;;;;;;4.25;2.97;;;;;;;19.45;32.12;99079.78;6235975;23;20319;-77
2021/04/26 11:39:41;;;;;;;4.28;2.92;;;;;;;19.48;31.79;99087.25;6212747;23;20000;-77